Weather at Langawirra Airport

Public forecast

Using degrees Celsius for public forecast. Weather courtesy of forecast.io.

Closest aviation weather report (METAR) to Langawirra Airport

Closest report is Broken Hill Airport, 47.3 nm (87.6 km) SW. Retrieved 2021/06/20 10:00 UTC (14 minutes ago):

YBHI 201000Z AUTO 14006KT 9999 // NCD 08/04 Q1024

Closest aviation forecast (TAF) to Langawirra Airport

Forecast is more than 12 hours old.

Closest forecast is Whyalla Airport, 253.6 nm (469.7 km) WSW. Retrieved 2018/11/15 18:03 UTC (3 years ago):

TAF YWHA 151701Z 1518/1608 VRB05KT CAVOK FM152300 18012KT CAVOK FM160200 18018KT CAVOK